Time;durP1;ratioP1;P1;durP2;ratioP2;P2;SDS_P1;SDS_P2;PMS_P1;PMS_P2;Temp;Humidity;BMP_temperature;BMP_pressure;BME280_temperature;BME280_humidity;BME280_pressure;Samples;Min_cycle;Max_cycle;Signal;HPM_P1;HPM_P2
2022/07/28 00:01:55;;;;;;;0.10;0.10;;;18.30;99.90;;;;;;5077126;28;20028;-73
2022/07/28 00:04:21;;;;;;;0.10;0.10;;;18.10;99.90;;;;;;5095361;28;20016;-73
2022/07/28 00:06:47;;;;;;;0.00;0.00;;;17.90;99.90;;;;;;5093474;28;20410;-73
2022/07/28 00:09:12;;;;;;;0.10;0.10;;;18.00;99.90;;;;;;5095191;28;20028;-74
2022/07/28 00:11:38;;;;;;;0.10;0.10;;;18.20;99.90;;;;;;5093865;28;20483;-73
2022/07/28 00:14:04;;;;;;;0.30;0.30;;;18.20;99.90;;;;;;5093920;28;20031;-73
2022/07/28 00:16:30;;;;;;;0.10;0.10;;;18.30;99.90;;;;;;5093720;28;20032;-73
2022/07/28 00:18:55;;;;;;;0.30;0.30;;;18.30;99.90;;;;;;5093841;28;20099;-73
2022/07/28 00:21:21;;;;;;;0.17;0.17;;;18.40;99.90;;;;;;5095153;28;20062;-74
2022/07/28 00:23:47;;;;;;;0.10;0.10;;;18.30;99.90;;;;;;5093764;28;20054;-73
2022/07/28 00:26:12;;;;;;;0.10;0.10;;;18.20;99.90;;;;;;5094699;28;20028;-74
2022/07/28 00:28:38;;;;;;;0.10;0.10;;;18.20;99.90;;;;;;5093589;28;20108;-73
2022/07/28 00:31:05;;;;;;;0.20;0.20;;;18.10;99.90;;;;;;5094536;28;20024;-73
2022/07/28 00:33:31;;;;;;;0.20;0.20;;;18.10;99.90;;;;;;5094783;28;20439;-73
2022/07/28 00:35:56;;;;;;;0.10;0.10;;;18.00;99.90;;;;;;5093288;28;20105;-73
2022/07/28 00:38:22;;;;;;;0.60;0.60;;;18.00;99.90;;;;;;5076680;28;20073;-74
2022/07/28 00:43:32;;;;;;;0.10;0.10;;;17.90;99.90;;;;;;5094676;28;20038;-73
2022/07/28 00:45:58;;;;;;;0.50;0.50;;;18.00;99.90;;;;;;5092960;28;20020;-73
2022/07/28 00:48:24;;;;;;;0.10;0.10;;;18.20;99.90;;;;;;5094499;28;20043;-73
2022/07/28 00:50:51;;;;;;;0.10;0.10;;;18.10;99.90;;;;;;5076356;28;20405;-74
2022/07/28 00:53:17;;;;;;;0.10;0.10;;;18.00;99.90;;;;;;5093059;28;20390;-74
2022/07/28 00:55:43;;;;;;;0.10;0.10;;;17.90;99.90;;;;;;5094186;28;20081;-73
2022/07/28 00:58:09;;;;;;;0.10;0.10;;;17.90;99.90;;;;;;5094237;28;20034;-73
2022/07/28 01:00:35;;;;;;;0.00;0.00;;;17.90;99.90;;;;;;5094087;28;20024;-74
2022/07/28 01:03:02;;;;;;;0.10;0.10;;;17.90;99.90;;;;;;5092981;28;20036;-73
2022/07/28 01:05:38;;;;;;;0.10;0.10;;;17.90;99.90;;;;;;5093984;28;20024;-73
2022/07/28 01:08:12;;;;;;;0.10;0.10;;;18.10;99.90;;;;;;5075836;28;20031;-73
2022/07/28 01:10:59;;;;;;;0.10;0.10;;;18.30;99.90;;;;;;5092979;28;20056;-73
2022/07/28 01:13:44;;;;;;;0.10;0.10;;;18.50;99.90;;;;;;5094355;28;20019;-74
2022/07/28 01:16:10;;;;;;;0.10;0.10;;;18.40;99.90;;;;;;5092490;28;20024;-74
2022/07/28 01:18:53;;;;;;;0.10;0.10;;;18.20;99.90;;;;;;5092596;28;20031;-73
2022/07/28 01:21:24;;;;;;;0.10;0.10;;;18.00;99.90;;;;;;5092532;28;20364;-74
2022/07/28 01:24:06;;;;;;;0.20;0.20;;;18.00;99.90;;;;;;5075822;28;20031;-73
2022/07/28 01:26:53;;;;;;;0.20;0.20;;;18.20;99.90;;;;;;5092275;28;20028;-73
2022/07/28 01:29:53;;;;;;;0.10;0.10;;;18.10;99.90;;;;;;5093477;28;20028;-74
2022/07/28 01:32:27;;;;;;;0.63;0.63;;;17.70;99.90;;;;;;5075498;28;20085;-73
2022/07/28 01:35:06;;;;;;;0.20;0.20;;;17.50;99.90;;;;;;5093600;28;20108;-73
2022/07/28 01:37:38;;;;;;;0.10;0.10;;;17.70;99.90;;;;;;5093397;28;20457;-73
2022/07/28 01:40:06;;;;;;;;;;;17.80;99.90;;;;;;5093975;28;20020;-74
2022/07/28 01:42:40;;;;;;;0.08;0.08;;;17.70;99.90;;;;;;5093431;28;19908;-73
2022/07/28 01:45:07;;;;;;;0.10;0.10;;;17.60;99.90;;;;;;5092044;28;20028;-74
2022/07/28 01:47:34;;;;;;;0.35;0.35;;;17.60;99.90;;;;;;5093133;28;20103;-74
2022/07/28 01:50:03;;;;;;;0.10;0.10;;;17.50;99.90;;;;;;5093212;28;20024;-74
2022/07/28 01:52:31;;;;;;;0.77;0.77;;;17.50;99.90;;;;;;5093254;28;20596;-73
2022/07/28 01:54:59;;;;;;;1.65;1.15;;;17.70;99.90;;;;;;5091838;28;20031;-73
2022/07/28 01:57:29;;;;;;;0.10;0.10;;;17.80;99.90;;;;;;5092975;28;20051;-74
2022/07/28 01:59:56;;;;;;;0.17;0.17;;;17.90;99.90;;;;;;5093185;28;20049;-74
2022/07/28 02:02:23;;;;;;;0.10;0.10;;;17.60;99.90;;;;;;5091608;28;20495;-73
2022/07/28 02:04:50;;;;;;;0.30;0.30;;;17.70;99.90;;;;;;5091759;28;20020;-73
2022/07/28 02:07:19;;;;;;;0.20;0.20;;;17.70;99.90;;;;;;5091564;28;20103;-73
2022/07/28 02:09:46;;;;;;;0.10;0.10;;;17.60;99.90;;;;;;5091629;28;20475;-73
2022/07/28 02:12:15;;;;;;;0.20;0.20;;;17.80;99.90;;;;;;5074721;28;20023;-73
2022/07/28 02:14:45;;;;;;;0.10;0.10;;;17.80;99.90;;;;;;5091483;28;20101;-73
2022/07/28 02:17:15;;;;;;;0.15;0.15;;;17.80;99.90;;;;;;5092401;28;20057;-73
2022/07/28 02:19:43;;;;;;;0.10;0.10;;;17.70;99.90;;;;;;5092206;28;20020;-73
2022/07/28 02:22:11;;;;;;;0.10;0.10;;;17.80;99.90;;;;;;5091383;28;20024;-73
2022/07/28 02:24:39;;;;;;;0.10;0.10;;;17.70;99.90;;;;;;5091312;28;20372;-73
2022/07/28 02:27:18;;;;;;;0.22;0.22;;;17.50;99.90;;;;;;5091092;28;20024;-73
2022/07/28 02:29:49;;;;;;;0.10;0.10;;;17.30;99.90;;;;;;5092445;28;20023;-73
2022/07/28 02:32:30;;;;;;;0.10;0.10;;;17.40;99.90;;;;;;5092545;28;20020;-73
2022/07/28 02:35:01;;;;;;;0.10;0.10;;;17.30;99.90;;;;;;5092439;28;20585;-73
2022/07/28 02:37:36;;;;;;;0.20;0.20;;;17.50;99.90;;;;;;5092325;28;20028;-73
2022/07/28 02:40:04;;;;;;;0.10;0.10;;;17.60;99.90;;;;;;5092982;28;20395;-73
2022/07/28 02:42:34;;;;;;;0.10;0.10;;;17.50;99.90;;;;;;5092380;28;20024;-73
2022/07/28 02:45:04;;;;;;;0.10;0.10;;;17.70;99.90;;;;;;5092250;28;20097;-73
2022/07/28 02:47:33;;;;;;;0.10;0.10;;;17.80;99.90;;;;;;5092201;28;20058;-73
2022/07/28 02:50:01;;;;;;;0.10;0.10;;;17.70;99.90;;;;;;5090975;28;20028;-73
2022/07/28 02:52:28;;;;;;;0.15;0.15;;;17.60;99.90;;;;;;5074046;28;20111;-73
2022/07/28 02:54:56;;;;;;;0.17;0.17;;;17.80;99.90;;;;;;5090942;28;20024;-73
2022/07/28 02:57:23;;;;;;;0.10;0.10;;;17.80;99.90;;;;;;5090833;28;20038;-73
2022/07/28 02:59:51;;;;;;;0.10;0.10;;;17.80;99.90;;;;;;5090958;28;20425;-73
2022/07/28 03:02:20;;;;;;;0.10;0.10;;;17.70;99.90;;;;;;5091909;28;20027;-73
2022/07/28 03:04:57;;;;;;;0.20;0.20;;;17.80;99.90;;;;;;5092070;28;20091;-73
2022/07/28 03:07:29;;;;;;;0.17;0.17;;;17.80;99.90;;;;;;5091925;28;20024;-73
2022/07/28 03:09:55;;;;;;;0.10;0.10;;;17.80;99.90;;;;;;5092085;28;20127;-73
2022/07/28 03:12:21;;;;;;;0.30;0.30;;;17.40;99.90;;;;;;5091949;28;20066;-73
2022/07/28 03:14:48;;;;;;;0.10;0.10;;;17.30;99.90;;;;;;5090653;28;20020;-72
2022/07/28 03:17:13;;;;;;;0.10;0.10;;;17.40;99.90;;;;;;5073486;28;20024;-73
2022/07/28 03:19:39;;;;;;;0.10;0.10;;;17.60;99.90;;;;;;5090823;28;20383;-73
2022/07/28 03:22:06;;;;;;;0.10;0.10;;;17.60;99.90;;;;;;5090906;28;20016;-73
2022/07/28 03:24:35;;;;;;;0.50;0.50;;;17.80;99.90;;;;;;5092331;28;20027;-73
2022/07/28 03:27:21;;;;;;;0.10;0.10;;;17.70;99.90;;;;;;5090508;28;20549;-73
2022/07/28 03:30:10;;;;;;;0.30;0.30;;;17.50;99.90;;;;;;5090340;28;20028;-73
2022/07/28 03:32:40;;;;;;;0.10;0.10;;;17.50;99.90;;;;;;5092949;28;20077;-73
2022/07/28 03:35:06;;;;;;;0.05;0.05;;;17.60;99.90;;;;;;5094657;28;20487;-73
2022/07/28 03:37:40;;;;;;;0.10;0.10;;;17.60;99.90;;;;;;5094410;28;20503;-73
2022/07/28 03:40:09;;;;;;;0.15;0.15;;;17.40;99.90;;;;;;5094599;28;20028;-73
2022/07/28 03:42:37;;;;;;;0.10;0.10;;;17.40;99.90;;;;;;5094452;28;20387;-73
2022/07/28 03:45:04;;;;;;;0.10;0.10;;;17.50;99.90;;;;;;5095609;28;20357;-73
2022/07/28 03:47:30;;;;;;;0.00;0.00;;;17.70;99.90;;;;;;5094239;28;20026;-73
2022/07/28 03:49:56;;;;;;;0.10;0.10;;;17.80;99.90;;;;;;5095553;28;20032;-73
2022/07/28 03:52:21;;;;;;;0.10;0.10;;;17.80;99.90;;;;;;5095569;28;20031;-73
2022/07/28 03:54:47;;;;;;;0.10;0.10;;;17.80;99.90;;;;;;5095429;28;20468;-73
2022/07/28 03:57:13;;;;;;;0.10;0.10;;;17.80;99.90;;;;;;5094035;28;20103;-73
2022/07/28 03:59:38;;;;;;;1.65;1.48;;;17.60;99.90;;;;;;5077171;28;20107;-73
2022/07/28 04:02:04;;;;;;;0.10;0.10;;;17.70;99.90;;;;;;5095245;28;20028;-73
2022/07/28 04:04:30;;;;;;;0.10;0.10;;;17.70;99.90;;;;;;5095352;28;20114;-73
2022/07/28 04:06:56;;;;;;;0.10;0.10;;;17.70;99.90;;;;;;5093754;28;20210;-73
2022/07/28 04:09:22;;;;;;;0.20;0.20;;;17.70;99.90;;;;;;5095239;28;20031;-73
2022/07/28 04:11:47;;;;;;;0.10;0.10;;;17.70;99.90;;;;;;5095055;28;20460;-73
2022/07/28 04:14:13;;;;;;;0.13;0.13;;;17.70;99.90;;;;;;5095108;28;20028;-73
2022/07/28 04:16:39;;;;;;;0.20;0.20;;;17.80;99.90;;;;;;5094869;28;20012;-73
2022/07/28 04:19:05;;;;;;;0.10;0.10;;;17.40;99.90;;;;;;5093768;28;20024;-73
2022/07/28 04:21:30;;;;;;;0.17;0.17;;;17.30;99.90;;;;;;5094889;28;20032;-73
2022/07/28 04:23:56;;;;;;;0.10;0.10;;;17.20;99.90;;;;;;5095009;28;20031;-73
2022/07/28 04:26:22;;;;;;;0.10;0.10;;;17.20;99.90;;;;;;5094812;28;20501;-74
2022/07/28 04:28:47;;;;;;;0.13;0.13;;;17.20;99.90;;;;;;5094989;28;20035;-74
2022/07/28 04:31:13;;;;;;;0.10;0.10;;;17.30;99.90;;;;;;5093144;28;20119;-73
2022/07/28 04:33:39;;;;;;;0.10;0.10;;;17.30;99.90;;;;;;5093363;28;20472;-74
2022/07/28 04:36:05;;;;;;;0.20;0.20;;;17.20;99.90;;;;;;5076499;28;20447;-74
2022/07/28 04:38:31;;;;;;;0.10;0.10;;;17.30;99.90;;;;;;5093398;28;20020;-73
2022/07/28 04:40:56;;;;;;;0.65;0.65;;;17.20;99.90;;;;;;5094711;28;20105;-74
2022/07/28 04:43:22;;;;;;;1.50;1.40;;;17.30;99.90;;;;;;5094123;28;20024;-74
2022/07/28 04:45:49;;;;;;;0.30;0.30;;;17.40;99.90;;;;;;5094463;28;20028;-74
2022/07/28 04:48:15;;;;;;;0.57;0.57;;;17.40;99.90;;;;;;5094615;28;20024;-74
2022/07/28 04:50:43;;;;;;;1.20;1.00;;;17.40;99.90;;;;;;5094370;28;20027;-74
2022/07/28 04:53:09;;;;;;;0.68;0.68;;;17.30;99.90;;;;;;5093087;28;20020;-74
2022/07/28 04:55:37;;;;;;;0.30;0.30;;;17.20;99.90;;;;;;5092972;28;20356;-73
2022/07/28 04:58:03;;;;;;;0.45;0.45;;;17.10;99.90;;;;;;5094255;28;20016;-73
2022/07/28 05:00:29;;;;;;;0.20;0.20;;;17.20;99.90;;;;;;5094153;28;20074;-73
2022/07/28 05:02:57;;;;;;;0.30;0.30;;;17.20;99.90;;;;;;5094154;28;20060;-74
2022/07/28 05:05:23;;;;;;;0.40;0.40;;;17.00;99.90;;;;;;5094012;28;20360;-73
2022/07/28 05:07:49;;;;;;;0.80;0.65;;;17.00;99.90;;;;;;5092784;28;20372;-74
2022/07/28 05:10:15;;;;;;;0.35;0.30;;;16.80;99.90;;;;;;5092628;28;20031;-74
2022/07/28 05:12:41;;;;;;;0.47;0.47;;;16.80;99.90;;;;;;5090049;28;20020;-74
2022/07/28 05:15:08;;;;;;;1.48;0.93;;;16.80;99.90;;;;;;5081187;28;20025;-74
2022/07/28 05:17:35;;;;;;;0.13;0.13;;;16.80;99.90;;;;;;5086264;28;20142;-74
2022/07/28 05:20:02;;;;;;;0.57;0.57;;;16.80;99.90;;;;;;5075629;28;20031;-74
2022/07/28 05:22:29;;;;;;;0.30;0.30;;;16.70;99.90;;;;;;5074528;28;20059;-74
2022/07/28 05:24:55;;;;;;;1.27;1.27;;;16.70;99.90;;;;;;5072003;28;20052;-74
2022/07/28 05:27:21;;;;;;;0.08;0.08;;;16.90;99.90;;;;;;5072536;28;20060;-74
2022/07/28 05:29:46;;;;;;;1.05;0.95;;;17.00;99.90;;;;;;5062938;28;20039;-74
2022/07/28 05:32:12;;;;;;;0.20;0.20;;;17.00;99.90;;;;;;5092165;28;20020;-74
2022/07/28 05:34:38;;;;;;;0.10;0.10;;;17.00;99.90;;;;;;5093237;28;20020;-74
2022/07/28 05:37:04;;;;;;;1.10;1.10;;;17.00;99.90;;;;;;5092058;28;20024;-74
2022/07/28 05:39:31;;;;;;;0.32;0.32;;;17.00;99.90;;;;;;5093396;28;20028;-74
2022/07/28 05:41:58;;;;;;;0.00;0.00;;;17.00;99.90;;;;;;5092196;28;20055;-74
2022/07/28 05:44:24;;;;;;;0.10;0.10;;;17.20;99.90;;;;;;5091062;28;20012;-74
2022/07/28 05:46:57;;;;;;;1.65;0.52;;;17.20;99.90;;;;;;5077969;28;20373;-74
2022/07/28 05:49:23;;;;;;;0.00;0.00;;;17.20;99.90;;;;;;5090311;28;20117;-73
2022/07/28 05:51:48;;;;;;;1.25;1.05;;;17.30;99.90;;;;;;5089903;28;20044;-73
2022/07/28 05:54:14;;;;;;;0.63;0.63;;;17.10;99.90;;;;;;5070754;28;20025;-74
2022/07/28 05:56:40;;;;;;;0.70;0.70;;;17.10;99.90;;;;;;5076073;28;20021;-73
2022/07/28 05:59:09;;;;;;;0.73;0.73;;;17.10;99.90;;;;;;5085735;28;20039;-74
2022/07/28 06:01:37;;;;;;;12.68;2.88;;;17.20;99.90;;;;;;5069093;28;20115;-73
2022/07/28 06:04:03;;;;;;;0.30;0.30;;;17.10;99.90;;;;;;5092791;28;20027;-73
2022/07/28 06:06:29;;;;;;;0.10;0.10;;;17.00;99.90;;;;;;5091610;28;20103;-73
2022/07/28 06:08:54;;;;;;;0.00;0.00;;;17.10;99.90;;;;;;5056230;28;20063;-73
2022/07/28 06:11:20;;;;;;;1.08;0.90;;;17.10;99.90;;;;;;5072308;28;20479;-74
2022/07/28 06:13:47;;;;;;;0.10;0.10;;;17.30;99.90;;;;;;5071322;28;20017;-73
2022/07/28 06:16:13;;;;;;;0.45;0.45;;;17.40;99.90;;;;;;5072164;28;20263;-73
2022/07/28 06:18:38;;;;;;;0.10;0.10;;;17.40;99.90;;;;;;5072251;28;20021;-73
2022/07/28 06:21:04;;;;;;;0.28;0.28;;;17.20;99.90;;;;;;5072325;28;20020;-73
2022/07/28 06:23:30;;;;;;;0.43;0.43;;;17.40;99.90;;;;;;5079455;28;20472;-73
2022/07/28 06:25:55;;;;;;;0.00;0.00;;;17.50;99.90;;;;;;5086763;28;20012;-73
2022/07/28 06:28:21;;;;;;;10.52;9.73;;;17.60;99.90;;;;;;5092164;28;20154;-74
2022/07/28 06:30:48;;;;;;;0.10;0.10;;;17.60;99.90;;;;;;5066899;28;20032;-74
2022/07/28 06:33:15;;;;;;;0.10;0.10;;;17.60;99.90;;;;;;5070813;28;20085;-74
2022/07/28 06:35:41;;;;;;;0.10;0.10;;;17.50;99.90;;;;;;5091171;28;20020;-74
2022/07/28 06:38:07;;;;;;;0.08;0.08;;;17.70;99.90;;;;;;5087298;28;20035;-74
2022/07/28 06:40:33;;;;;;;0.63;0.63;;;17.60;99.90;;;;;;5070758;28;20042;-71
2022/07/28 06:42:59;;;;;;;0.43;0.43;;;17.50;99.90;;;;;;5054170;28;20020;-71
2022/07/28 06:45:25;;;;;;;1.15;0.32;;;17.60;99.90;;;;;;5070706;28;20369;-71
2022/07/28 06:47:51;;;;;;;0.57;0.57;;;17.60;99.90;;;;;;5086812;28;20028;-74
2022/07/28 06:50:18;;;;;;;0.10;0.10;;;17.80;99.90;;;;;;5092110;28;20161;-72
2022/07/28 06:52:44;;;;;;;1.20;1.10;;;17.90;99.90;;;;;;5092362;28;20498;-73
2022/07/28 06:55:11;;;;;;;1.33;0.75;;;17.90;99.90;;;;;;5090003;28;20020;-73
2022/07/28 06:57:37;;;;;;;1.48;1.38;;;17.90;99.90;;;;;;5071758;28;20175;-72
2022/07/28 07:00:07;;;;;;;1.30;0.90;;;17.80;99.90;;;;;;5071757;28;20023;-72
2022/07/28 07:02:38;;;;;;;0.77;0.52;;;17.90;99.90;;;;;;5071814;28;20034;-72
2022/07/28 07:05:05;;;;;;;0.10;0.10;;;17.80;99.90;;;;;;5071664;28;20028;-72
2022/07/28 07:07:30;;;;;;;0.75;0.75;;;17.90;99.90;;;;;;5071427;28;20082;-73
2022/07/28 07:09:56;;;;;;;0.13;0.13;;;18.00;99.90;;;;;;5071514;28;20217;-73
2022/07/28 07:12:22;;;;;;;1.55;1.33;;;18.00;99.90;;;;;;5072303;28;20549;-73
2022/07/28 07:14:47;;;;;;;3.25;2.15;;;18.10;99.90;;;;;;5070712;28;20021;-73
2022/07/28 07:17:13;;;;;;;1.13;1.13;;;18.10;99.90;;;;;;5070592;28;20024;-74
2022/07/28 07:19:39;;;;;;;0.90;0.90;;;18.10;99.90;;;;;;5070960;28;20039;-74
2022/07/28 07:22:05;;;;;;;24.58;6.93;;;18.00;99.90;;;;;;5071894;28;20016;-74
2022/07/28 07:24:31;;;;;;;2.08;1.90;;;18.10;99.90;;;;;;5054230;28;20527;-74
2022/07/28 07:26:56;;;;;;;2.83;2.50;;;18.30;99.90;;;;;;5084146;28;20276;-74
2022/07/28 07:29:23;;;;;;;1.08;0.50;;;18.30;99.90;;;;;;5058416;28;20062;-74
2022/07/28 07:31:49;;;;;;;0.10;0.10;;;18.50;99.90;;;;;;5090810;28;20024;-74
2022/07/28 07:34:15;;;;;;;1.25;1.15;;;18.60;99.90;;;;;;5082648;28;20020;-73
2022/07/28 07:36:41;;;;;;;0.22;0.22;;;18.60;99.90;;;;;;5071499;28;20056;-74
2022/07/28 07:39:07;;;;;;;4.28;2.47;;;18.70;99.90;;;;;;5085764;28;20063;-74
2022/07/28 07:41:32;;;;;;;0.15;0.15;;;18.70;99.90;;;;;;5090556;28;20056;-74
2022/07/28 07:43:58;;;;;;;0.55;0.55;;;19.00;99.90;;;;;;5070858;28;20439;-73
2022/07/28 07:46:24;;;;;;;0.10;0.10;;;19.20;99.90;;;;;;5070905;28;20028;-73
2022/07/28 07:48:49;;;;;;;13.15;1.40;;;19.30;99.90;;;;;;5071574;28;20076;-73
2022/07/28 07:51:15;;;;;;;0.10;0.10;;;19.30;99.90;;;;;;5070169;28;20016;-73
2022/07/28 07:53:41;;;;;;;3.20;2.70;;;19.40;99.90;;;;;;5071749;28;20440;-72
2022/07/28 07:56:06;;;;;;;0.20;0.20;;;19.60;99.90;;;;;;5071276;28;20024;-74
2022/07/28 07:58:33;;;;;;;0.65;0.50;;;19.80;99.90;;;;;;5070209;28;20095;-74
2022/07/28 08:00:59;;;;;;;0.38;0.38;;;19.80;99.90;;;;;;5090227;28;20472;-75
2022/07/28 08:03:24;;;;;;;0.73;0.73;;;19.80;99.90;;;;;;5091559;28;20099;-75
2022/07/28 08:05:54;;;;;;;0.52;0.52;;;19.80;99.90;;;;;;5091381;28;20081;-74
2022/07/28 08:08:20;;;;;;;0.10;0.10;;;19.90;99.90;;;;;;5090101;28;20414;-75
2022/07/28 08:10:45;;;;;;;0.10;0.10;;;19.90;99.90;;;;;;5091361;28;20032;-73
2022/07/28 08:13:11;;;;;;;0.65;0.60;;;20.20;99.90;;;;;;5073298;28;20107;-73
2022/07/28 08:15:37;;;;;;;0.30;0.30;;;20.40;99.90;;;;;;5091393;28;20380;-75
2022/07/28 08:18:03;;;;;;;1.27;1.17;;;20.80;99.90;;;;;;5092789;28;20031;-75
2022/07/28 08:20:29;;;;;;;0.00;0.00;;;21.00;99.90;;;;;;5077217;28;20038;-73
2022/07/28 08:22:56;;;;;;;0.47;0.47;;;21.30;99.90;;;;;;5095044;28;20021;-73
2022/07/28 08:25:23;;;;;;;0.20;0.20;;;21.50;99.90;;;;;;5093790;28;20020;-72
2022/07/28 08:27:49;;;;;;;7.32;4.75;;;21.60;99.90;;;;;;5095028;28;20024;-72
2022/07/28 08:30:18;;;;;;;0.00;0.00;;;21.60;99.90;;;;;;5094905;28;20032;-73
2022/07/28 08:32:43;;;;;;;0.17;0.17;;;21.80;99.90;;;;;;5095143;28;20077;-72
2022/07/28 08:35:10;;;;;;;0.22;0.22;;;22.20;99.90;;;;;;5094806;28;20415;-73
2022/07/28 08:37:38;;;;;;;0.35;0.35;;;22.50;99.90;;;;;;5093266;28;20020;-74
2022/07/28 08:40:10;;;;;;;0.25;0.25;;;22.60;99.90;;;;;;5093751;28;20024;-73
2022/07/28 08:42:44;;;;;;;1.30;1.20;;;22.70;99.90;;;;;;5093383;28;20085;-74
2022/07/28 08:45:11;;;;;;;1.23;1.00;;;22.90;99.90;;;;;;5093385;28;20032;-72
2022/07/28 08:47:38;;;;;;;0.10;0.10;;;23.20;99.90;;;;;;5094742;28;20028;-73
2022/07/28 08:50:04;;;;;;;1.13;1.02;;;23.40;99.90;;;;;;5094487;28;20498;-73
2022/07/28 08:52:31;;;;;;;1.10;1.08;;;23.70;99.90;;;;;;5094591;28;20020;-73
2022/07/28 08:55:01;;;;;;;2.03;1.65;;;24.00;99.90;;;;;;5094409;28;20020;-73
2022/07/28 08:57:31;;;;;;;0.98;0.90;;;24.00;99.90;;;;;;5094268;28;20016;-73
2022/07/28 08:59:57;;;;;;;0.30;0.17;;;24.20;99.90;;;;;;5094451;28;20027;-73
2022/07/28 09:02:27;;;;;;;2.28;1.05;;;24.30;99.90;;;;;;5092827;28;20387;-73
2022/07/28 09:04:54;;;;;;;2.35;0.75;;;24.60;99.90;;;;;;5092962;28;20039;-73
2022/07/28 09:07:22;;;;;;;1.10;0.85;;;24.60;99.90;;;;;;5075901;28;20070;-72
2022/07/28 09:09:49;;;;;;;0.08;0.08;;;24.60;99.90;;;;;;5075987;28;20028;-72
2022/07/28 09:12:15;;;;;;;0.10;0.10;;;24.90;99.90;;;;;;5092803;28;20024;-72
2022/07/28 09:14:41;;;;;;;0.00;0.00;;;24.90;99.90;;;;;;5094165;28;20073;-73
2022/07/28 09:17:07;;;;;;;0.10;0.10;;;25.10;99.90;;;;;;5092592;28;20107;-74
2022/07/28 09:19:32;;;;;;;2.15;1.13;;;24.90;99.90;;;;;;5094089;28;20031;-73
2022/07/28 09:21:59;;;;;;;0.20;0.20;;;25.10;99.90;;;;;;5064449;28;20503;-74
2022/07/28 09:24:38;;;;;;;0.20;0.20;;;25.30;99.40;;;;;;5072456;28;20119;-73
2022/07/28 09:27:06;;;;;;;1.80;1.40;;;25.40;98.30;;;;;;5072110;28;20028;-74
2022/07/28 09:29:33;;;;;;;0.98;0.43;;;25.50;98.00;;;;;;5072533;28;20021;-72
2022/07/28 09:31:59;;;;;;;0.40;0.40;;;25.50;97.40;;;;;;5080271;28;20111;-72
2022/07/28 09:34:24;;;;;;;5.00;1.90;;;25.40;96.70;;;;;;5093653;28;20051;-72
2022/07/28 09:36:51;;;;;;;1.13;1.13;;;25.40;96.90;;;;;;5092359;28;20052;-72
2022/07/28 09:39:33;;;;;;;0.40;0.40;;;25.60;95.80;;;;;;5093706;28;20675;-71
2022/07/28 09:41:59;;;;;;;1.23;0.77;;;25.80;95.60;;;;;;5092969;28;20024;-72
2022/07/28 09:44:26;;;;;;;0.40;0.40;;;25.70;95.90;;;;;;5093857;28;20080;-72
2022/07/28 09:46:53;;;;;;;0.98;0.98;;;25.70;95.50;;;;;;5093114;28;20475;-71
2022/07/28 09:49:19;;;;;;;0.45;0.45;;;26.10;95.40;;;;;;5092359;28;20034;-72
2022/07/28 09:51:59;;;;;;;0.43;0.43;;;26.30;94.50;;;;;;5093222;28;20030;-73
2022/07/28 09:54:24;;;;;;;3.40;1.08;;;26.40;93.40;;;;;;5091613;28;20476;-72
2022/07/28 09:56:50;;;;;;;0.40;0.40;;;26.70;93.40;;;;;;5091876;28;20023;-72
2022/07/28 09:59:17;;;;;;;0.57;0.57;;;27.10;91.70;;;;;;5093247;28;20024;-72
2022/07/28 10:01:51;;;;;;;1.90;1.45;;;27.30;90.50;;;;;;5091744;28;20388;-74
2022/07/28 10:04:35;;;;;;;4.13;2.17;;;27.40;89.70;;;;;;5091852;28;20031;-73
2022/07/28 10:07:05;;;;;;;0.43;0.40;;;27.50;89.50;;;;;;5092648;28;20032;-73
2022/07/28 10:09:32;;;;;;;0.90;0.38;;;27.30;88.70;;;;;;5091715;28;20028;-72
2022/07/28 10:12:20;;;;;;;0.00;0.00;;;27.40;88.30;;;;;;5092955;28;20498;-72
2022/07/28 10:14:49;;;;;;;2.80;1.65;;;27.50;88.90;;;;;;5093025;28;20016;-71
2022/07/28 10:17:31;;;;;;;0.08;0.05;;;27.40;89.20;;;;;;5092722;28;20020;-72
2022/07/28 10:20:00;;;;;;;5.18;4.72;;;27.60;86.30;;;;;;5092772;28;20383;-72
2022/07/28 10:22:30;;;;;;;0.20;0.20;;;27.50;89.30;;;;;;5092838;28;20065;-72
2022/07/28 10:24:59;;;;;;;0.80;0.47;;;27.60;87.20;;;;;;5093035;28;20020;-72
2022/07/28 10:27:26;;;;;;;0.00;0.00;;;27.40;87.30;;;;;;5092555;28;20016;-72
2022/07/28 10:30:01;;;;;;;0.00;0.00;;;27.70;86.70;;;;;;5091377;28;20051;-72
2022/07/28 10:32:37;;;;;;;2.15;1.45;;;28.20;85.50;;;;;;5092513;28;20025;-72
2022/07/28 10:35:09;;;;;;;0.52;0.52;;;28.20;82.80;;;;;;5092958;28;20483;-72
2022/07/28 10:37:44;;;;;;;0.60;0.43;;;28.40;81.80;;;;;;5092447;28;20012;-72
2022/07/28 10:40:11;;;;;;;0.38;0.35;;;28.40;81.10;;;;;;5092146;28;20028;-72
2022/07/28 10:42:40;;;;;;;0.25;0.25;;;28.30;79.80;;;;;;5092118;28;20032;-72
2022/07/28 10:45:09;;;;;;;1.85;0.80;;;28.30;80.20;;;;;;5091162;28;20547;-72
2022/07/28 10:47:35;;;;;;;0.73;0.40;;;28.60;79.00;;;;;;5091221;28;20497;-72
2022/07/28 10:50:02;;;;;;;0.55;0.55;;;28.40;79.60;;;;;;5092329;28;20105;-72
2022/07/28 10:52:29;;;;;;;1.10;1.00;;;28.20;79.70;;;;;;5091017;28;20020;-72
2022/07/28 10:55:26;;;;;;;0.30;0.30;;;28.30;78.30;;;;;;5090818;28;20035;-72
2022/07/28 10:58:12;;;;;;;0.25;0.25;;;28.60;78.60;;;;;;5092098;28;20073;-72
2022/07/28 11:00:49;;;;;;;2.78;1.90;;;28.70;76.90;;;;;;5092391;28;20032;-72
2022/07/28 11:03:36;;;;;;;4.13;2.20;;;28.70;77.80;;;;;;5092148;28;20064;-74
2022/07/28 11:06:27;;;;;;;5.68;1.63;;;28.70;77.80;;;;;;5090624;28;20530;-71
2022/07/28 11:08:58;;;;;;;0.40;0.40;;;29.00;74.60;;;;;;5092192;28;20484;-71
2022/07/28 11:11:53;;;;;;;0.73;0.73;;;29.00;74.40;;;;;;5091975;28;20025;-71
2022/07/28 11:14:21;;;;;;;0.40;0.20;;;28.50;74.80;;;;;;5090657;28;20032;-71
2022/07/28 11:16:59;;;;;;;0.30;0.20;;;28.90;75.10;;;;;;5091981;28;20027;-71
2022/07/28 11:19:27;;;;;;;0.10;0.10;;;29.00;74.50;;;;;;5091994;28;20028;-71
2022/07/28 11:22:20;;;;;;;0.43;0.40;;;29.30;73.80;;;;;;5091958;28;20032;-72
2022/07/28 11:25:06;;;;;;;3.22;1.20;;;29.40;71.30;;;;;;5091833;28;20028;-72
2022/07/28 11:27:48;;;;;;;12.35;6.03;;;29.30;71.40;;;;;;5083351;28;20044;-72
2022/07/28 11:30:34;;;;;;;3.33;1.45;;;29.50;71.70;;;;;;5091809;28;20028;-73
2022/07/28 11:33:05;;;;;;;0.45;0.45;;;29.50;68.70;;;;;;5090605;28;20047;-71
2022/07/28 11:35:37;;;;;;;;;;;29.60;68.10;;;;;;5092053;28;20104;-72
2022/07/28 11:38:02;;;;;;;0.30;0.30;;;29.50;69.30;;;;;;5091679;28;19912;-73
2022/07/28 11:40:29;;;;;;;0.25;0.20;;;29.50;68.80;;;;;;5091744;28;20031;-71
2022/07/28 11:43:25;;;;;;;0.20;0.20;;;29.50;69.90;;;;;;5091810;28;20130;-72
2022/07/28 11:46:00;;;;;;;0.55;0.55;;;29.30;70.10;;;;;;5087280;28;20032;-72
2022/07/28 11:48:28;;;;;;;1.17;0.35;;;29.50;68.70;;;;;;5091612;28;20024;-72
2022/07/28 11:51:02;;;;;;;2.47;0.63;;;29.30;69.20;;;;;;5091654;28;20085;-72
2022/07/28 11:53:41;;;;;;;0.20;0.13;;;29.20;69.50;;;;;;5093859;28;20031;-72
2022/07/28 11:56:12;;;;;;;0.00;0.00;;;29.40;69.20;;;;;;5077310;28;20388;-72
2022/07/28 11:58:39;;;;;;;0.30;0.30;;;29.10;69.30;;;;;;5095599;28;20016;-71
2022/07/28 12:01:20;;;;;;;0.73;0.52;;;29.20;69.00;;;;;;5095759;28;20046;-72
2022/07/28 12:03:50;;;;;;;0.00;0.00;;;29.20;69.30;;;;;;5095444;28;20038;-73
2022/07/28 12:06:16;;;;;;;0.70;0.68;;;29.20;69.50;;;;;;5095103;28;20394;-73
2022/07/28 12:09:00;;;;;;;0.00;0.00;;;29.10;68.40;;;;;;5095220;28;20027;-73
2022/07/28 12:11:31;;;;;;;0.32;0.15;;;29.30;67.10;;;;;;5095360;28;20024;-73
2022/07/28 12:14:01;;;;;;;0.55;0.47;;;29.00;67.30;;;;;;5094160;28;20048;-73
2022/07/28 12:16:31;;;;;;;1.38;1.27;;;28.60;68.60;;;;;;5093863;28;20453;-73
2022/07/28 12:19:01;;;;;;;0.10;0.10;;;28.50;69.40;;;;;;5093826;28;20031;-73
2022/07/28 12:21:41;;;;;;;0.00;0.00;;;28.50;70.20;;;;;;5093926;28;20092;-73
2022/07/28 12:24:14;;;;;;;0.15;0.15;;;28.30;69.00;;;;;;5093816;28;20107;-73
2022/07/28 12:26:41;;;;;;;0.28;0.28;;;28.10;70.10;;;;;;5093715;28;20085;-72
2022/07/28 12:29:11;;;;;;;0.00;0.00;;;28.10;69.20;;;;;;5094831;28;20372;-75
2022/07/28 12:31:37;;;;;;;0.43;0.40;;;28.00;69.40;;;;;;5093702;28;20499;-75
2022/07/28 12:34:05;;;;;;;0.50;0.50;;;27.90;70.20;;;;;;5093650;28;20024;-75
2022/07/28 12:36:35;;;;;;;0.35;0.35;;;27.60;70.60;;;;;;5094536;28;20026;-75
2022/07/28 12:39:03;;;;;;;0.60;0.40;;;27.40;70.00;;;;;;5094581;28;20145;-76
2022/07/28 12:41:37;;;;;;;0.38;0.38;;;27.50;69.70;;;;;;5093164;28;20034;-76
2022/07/28 12:44:04;;;;;;;0.10;0.10;;;27.60;71.20;;;;;;5093442;28;20028;-76
2022/07/28 12:46:31;;;;;;;0.63;0.60;;;27.70;70.20;;;;;;5093308;28;20028;-76
2022/07/28 12:48:57;;;;;;;1.73;1.00;;;27.60;70.80;;;;;;5094650;28;20028;-75
2022/07/28 12:51:44;;;;;;;1.58;0.65;;;27.50;71.70;;;;;;5102643;28;20077;-74
2022/07/28 12:54:12;;;;;;;1.00;0.75;;;27.40;71.20;;;;;;5087379;28;20119;-75
2022/07/28 12:56:49;;;;;;;0.20;0.20;;;27.30;72.90;;;;;;5094321;28;20395;-75
2022/07/28 12:59:18;;;;;;;0.50;0.50;;;27.30;71.60;;;;;;5094414;28;20046;-75
2022/07/28 13:01:55;;;;;;;0.35;0.35;;;27.40;70.90;;;;;;5093120;28;20036;-76